Time;durP1;ratioP1;P1;durP2;ratioP2;P2;SDS_P1;SDS_P2;PMS_P1;PMS_P2;Temp;Humidity;BMP_temperature;BMP_pressure;BME280_temperature;BME280_humidity;BME280_pressure;Samples;Min_cycle;Max_cycle;Signal;HPM_P1;HPM_P2
2023/02/25 00:02:09;;;;;;;10.03;4.40;;;3.90;99.90;;;;;;5015512;28;20527;-69
2023/02/25 00:04:39;;;;;;;13.77;3.50;;;3.80;99.90;;;;;;5015882;28;20457;-70
2023/02/25 00:07:06;;;;;;;9.20;3.83;;;3.80;99.90;;;;;;5015404;28;20461;-71
2023/02/25 00:09:33;;;;;;;15.17;3.40;;;3.80;99.90;;;;;;5014917;28;20453;-70
2023/02/25 00:12:00;;;;;;;9.80;3.60;;;3.70;99.90;;;;;;5015145;28;20935;-70
2023/02/25 00:14:27;;;;;;;13.57;3.40;;;3.70;99.90;;;;;;5015555;28;20457;-70
2023/02/25 00:16:54;;;;;;;16.80;4.20;;;3.80;99.90;;;;;;5015534;28;20452;-71
2023/02/25 00:19:21;;;;;;;16.73;4.63;;;3.80;99.90;;;;;;5015442;28;20467;-71
2023/02/25 00:21:49;;;;;;;15.83;2.40;;;3.70;99.90;;;;;;5015606;28;20457;-70
2023/02/25 00:24:16;;;;;;;7.20;2.43;;;3.60;99.90;;;;;;5015140;28;20547;-70
2023/02/25 00:26:43;;;;;;;4.13;1.63;;;3.40;99.90;;;;;;5015496;28;20457;-71
2023/02/25 00:29:10;;;;;;;4.63;1.90;;;2.90;99.90;;;;;;5015089;28;20951;-70
2023/02/25 00:31:37;;;;;;;3.30;1.50;;;2.80;99.90;;;;;;5015298;28;20453;-70
2023/02/25 00:34:04;;;;;;;2.53;1.70;;;2.50;99.90;;;;;;5015297;28;20797;-70
2023/02/25 00:36:31;;;;;;;2.30;1.60;;;2.30;99.90;;;;;;5015359;28;20463;-71
2023/02/25 00:38:59;;;;;;;4.00;1.53;;;2.30;99.90;;;;;;5015212;28;20479;-69
2023/02/25 00:41:29;;;;;;;2.80;1.50;;;2.20;99.90;;;;;;5015178;28;20890;-71
2023/02/25 00:43:57;;;;;;;3.80;1.70;;;2.10;99.90;;;;;;5015237;28;20461;-71
2023/02/25 00:46:25;;;;;;;2.20;1.50;;;2.00;99.90;;;;;;5014775;28;20571;-70
2023/02/25 00:48:52;;;;;;;2.80;1.73;;;2.00;99.90;;;;;;5015222;28;20471;-70
2023/02/25 00:51:21;;;;;;;2.53;1.60;;;1.90;99.90;;;;;;5014887;28;20456;-70
2023/02/25 00:53:48;;;;;;;3.10;1.90;;;1.90;99.90;;;;;;5015169;28;20987;-70
2023/02/25 00:56:18;;;;;;;2.60;1.80;;;1.90;99.90;;;;;;5015155;28;20461;-70
2023/02/25 00:58:47;;;;;;;6.30;2.03;;;2.00;99.90;;;;;;5015102;28;20496;-70
2023/02/25 01:01:19;;;;;;;3.30;2.27;;;2.00;99.90;;;;;;5015067;28;20484;-71
2023/02/25 01:03:47;;;;;;;4.17;1.80;;;2.00;99.90;;;;;;5014720;28;20933;-71
2023/02/25 01:06:14;;;;;;;3.53;2.00;;;2.00;99.90;;;;;;5014980;28;20461;-70
2023/02/25 01:08:41;;;;;;;7.40;2.20;;;2.10;99.90;;;;;;5014777;28;20456;-70
2023/02/25 01:11:13;;;;;;;8.83;2.60;;;2.10;99.90;;;;;;5014769;28;20457;-71
2023/02/25 01:13:42;;;;;;;4.77;2.80;;;2.20;99.90;;;;;;5015017;28;20841;-70
2023/02/25 01:16:14;;;;;;;9.13;2.87;;;2.30;99.90;;;;;;5015059;28;20457;-69
2023/02/25 01:18:42;;;;;;;5.70;2.77;;;2.30;99.90;;;;;;5014944;28;20467;-69
2023/02/25 01:21:16;;;;;;;6.43;2.60;;;2.40;99.90;;;;;;5016655;28;20495;-70
2023/02/25 01:23:43;;;;;;;4.80;2.20;;;2.40;99.90;;;;;;5018479;28;20904;-69
2023/02/25 01:26:10;;;;;;;8.67;2.90;;;2.40;99.90;;;;;;5018726;28;20467;-69
2023/02/25 01:28:37;;;;;;;5.17;2.80;;;2.50;99.90;;;;;;5018618;28;20456;-70
2023/02/25 01:31:07;;;;;;;6.73;3.00;;;2.50;99.90;;;;;;5018093;28;20556;-70
2023/02/25 01:33:37;;;;;;;6.13;2.83;;;2.50;99.90;;;;;;5018538;28;20456;-70
2023/02/25 01:36:04;;;;;;;7.23;3.10;;;2.60;99.90;;;;;;5018455;28;20461;-70
2023/02/25 01:38:31;;;;;;;9.00;3.03;;;2.60;99.90;;;;;;5018465;28;20456;-70
2023/02/25 01:40:59;;;;;;;13.50;4.60;;;2.70;99.90;;;;;;5018205;28;20489;-70
2023/02/25 01:43:27;;;;;;;11.03;4.60;;;2.70;99.90;;;;;;5018273;28;20457;-69
2023/02/25 01:45:55;;;;;;;10.30;4.40;;;2.70;99.90;;;;;;5017888;28;20535;-69
2023/02/25 01:48:25;;;;;;;13.07;6.40;;;2.70;99.90;;;;;;5017841;28;20459;-69
2023/02/25 01:50:56;;;;;;;12.30;7.97;;;2.70;99.90;;;;;;5018042;28;20898;-69
2023/02/25 01:53:27;;;;;;;20.40;8.40;;;2.80;99.90;;;;;;5018203;28;20464;-69
2023/02/25 01:55:56;;;;;;;17.70;6.97;;;2.80;99.90;;;;;;5018252;28;20900;-69
2023/02/25 01:58:24;;;;;;;20.10;10.30;;;2.80;99.90;;;;;;5017863;28;20471;-69
2023/02/25 02:00:54;;;;;;;22.90;13.47;;;2.90;99.90;;;;;;5018085;28;20477;-69
2023/02/25 02:03:24;;;;;;;19.60;12.33;;;3.00;99.90;;;;;;5017998;28;20527;-69
2023/02/25 02:06:00;;;;;;;26.80;12.13;;;3.00;99.90;;;;;;5017792;28;20456;-68
2023/02/25 02:08:26;;;;;;;36.67;16.27;;;3.00;99.90;;;;;;5017792;28;20787;-69
2023/02/25 02:10:54;;;;;;;32.23;14.60;;;3.10;99.90;;;;;;5017979;28;20457;-68
2023/02/25 02:13:21;;;;;;;23.30;10.80;;;3.20;99.90;;;;;;5017403;28;20464;-68
2023/02/25 02:16:07;;;;;;;26.23;12.10;;;3.10;99.90;;;;;;5017898;28;20461;-69
2023/02/25 02:18:39;;;;;;;27.83;12.30;;;3.20;99.90;;;;;;5017744;28;20444;-68
2023/02/25 02:21:22;;;;;;;31.37;19.43;;;3.20;99.90;;;;;;5017686;28;20790;-68
2023/02/25 02:24:24;;;;;;;50.00;26.40;;;3.20;99.90;;;;;;5017454;28;20476;-69
2023/02/25 02:27:01;;;;;;;23.43;10.63;;;3.20;99.90;;;;;;4987321;28;20468;-69
2023/02/25 02:30:06;;;;;;;18.50;12.10;;;3.20;99.90;;;;;;5017734;28;20536;-69
2023/02/25 02:32:39;;;;;;;7.20;5.10;;;3.20;99.90;;;;;;5016913;28;20455;-69
2023/02/25 02:35:18;;;;;;;9.53;6.73;;;3.20;99.90;;;;;;5017753;28;20441;-69
2023/02/25 02:37:57;;;;;;;8.90;6.37;;;3.20;99.90;;;;;;5017661;28;20440;-68
2023/02/25 02:40:37;;;;;;;10.73;5.90;;;3.20;99.90;;;;;;5017798;28;20500;-68
2023/02/25 02:43:10;;;;;;;9.57;5.53;;;3.30;99.90;;;;;;5017951;28;20531;-69
2023/02/25 02:45:43;;;;;;;8.03;5.80;;;3.30;99.90;;;;;;5017268;28;20485;-70
2023/02/25 02:48:15;;;;;;;8.00;4.70;;;3.30;99.90;;;;;;5016957;28;20528;-69
2023/02/25 02:50:46;;;;;;;5.07;4.10;;;3.30;99.90;;;;;;5017174;28;20848;-69
2023/02/25 02:53:18;;;;;;;8.17;4.80;;;3.30;99.90;;;;;;5017096;28;20455;-69
2023/02/25 02:55:47;;;;;;;6.23;3.83;;;3.30;99.90;;;;;;5017037;28;20762;-69
2023/02/25 02:58:21;;;;;;;3.70;3.17;;;3.40;99.90;;;;;;5016863;28;20452;-69
2023/02/25 03:00:54;;;;;;;4.40;2.90;;;3.20;99.90;;;;;;5016591;28;20468;-68
2023/02/25 03:03:34;;;;;;;4.10;2.70;;;3.30;99.90;;;;;;5016722;28;20456;-69
2023/02/25 03:06:04;;;;;;;3.07;2.47;;;3.20;99.90;;;;;;5016629;28;20491;-69
2023/02/25 03:08:34;;;;;;;7.20;2.80;;;3.20;99.90;;;;;;5016713;28;20467;-68
2023/02/25 03:11:01;;;;;;;3.47;2.77;;;3.20;99.90;;;;;;5016566;28;20453;-69
2023/02/25 03:13:27;;;;;;;3.10;2.80;;;3.20;99.90;;;;;;5016210;28;20457;-69
2023/02/25 03:15:55;;;;;;;3.53;3.23;;;3.10;99.90;;;;;;5016530;28;20467;-68
2023/02/25 03:18:34;;;;;;;4.27;3.23;;;3.20;99.90;;;;;;5016386;28;20463;-69
2023/02/25 03:21:05;;;;;;;3.63;2.70;;;3.10;99.90;;;;;;5016432;28;20469;-69
2023/02/25 03:23:35;;;;;;;11.63;2.67;;;3.10;99.90;;;;;;5016658;28;20455;-69
2023/02/25 03:26:11;;;;;;;5.03;2.47;;;3.10;99.90;;;;;;5016282;28;20467;-69
2023/02/25 03:28:39;;;;;;;2.87;2.53;;;3.20;99.90;;;;;;5016418;28;20445;-69
2023/02/25 03:31:09;;;;;;;3.53;2.83;;;3.10;99.90;;;;;;5016229;28;20464;-69
2023/02/25 03:33:46;;;;;;;3.50;3.20;;;3.00;99.90;;;;;;5016303;28;20455;-69
2023/02/25 03:36:18;;;;;;;3.93;2.47;;;3.10;99.90;;;;;;5016197;28;20460;-69
2023/02/25 03:38:49;;;;;;;3.27;2.20;;;3.00;99.90;;;;;;5016149;28;20495;-70
2023/02/25 03:41:19;;;;;;;2.83;2.40;;;3.00;99.90;;;;;;5016124;28;20469;-68
2023/02/25 03:43:50;;;;;;;2.63;2.40;;;3.00;99.90;;;;;;5015119;28;20467;-69
2023/02/25 03:46:19;;;;;;;3.30;2.97;;;3.00;99.90;;;;;;5015671;28;20499;-68
2023/02/25 03:48:50;;;;;;;2.30;2.03;;;3.10;99.90;;;;;;5015618;28;20499;-69
2023/02/25 03:51:22;;;;;;;4.07;2.40;;;3.10;99.90;;;;;;5015538;28;20463;-69
2023/02/25 03:53:49;;;;;;;3.43;3.10;;;3.10;99.90;;;;;;5016061;28;20445;-69
2023/02/25 03:56:16;;;;;;;3.13;2.67;;;3.00;99.90;;;;;;5015828;28;20488;-69
2023/02/25 03:58:43;;;;;;;3.03;2.23;;;3.00;99.90;;;;;;5015921;28;20457;-69
2023/02/25 04:01:14;;;;;;;3.00;2.00;;;2.90;99.90;;;;;;5016400;28;20490;-69
2023/02/25 04:03:41;;;;;;;2.50;2.30;;;3.00;99.90;;;;;;5015608;28;20512;-69
2023/02/25 04:06:10;;;;;;;2.40;2.03;;;3.00;99.90;;;;;;5015420;28;20966;-69
2023/02/25 04:08:37;;;;;;;2.60;2.23;;;2.90;99.90;;;;;;5015674;28;20457;-69
2023/02/25 04:11:04;;;;;;;2.20;1.90;;;2.90;99.90;;;;;;5015179;28;20457;-69
2023/02/25 04:13:31;;;;;;;4.63;2.10;;;2.80;99.90;;;;;;5015352;28;20992;-69
2023/02/25 04:15:58;;;;;;;2.40;2.20;;;2.90;99.90;;;;;;5015204;28;20457;-68
2023/02/25 04:18:25;;;;;;;2.10;1.90;;;2.90;99.90;;;;;;5015180;28;20457;-70
2023/02/25 04:20:52;;;;;;;2.80;1.70;;;2.90;99.90;;;;;;5015207;28;20485;-69
2023/02/25 04:23:20;;;;;;;2.47;2.10;;;2.90;99.90;;;;;;5015463;28;20456;-69
2023/02/25 04:25:47;;;;;;;2.30;2.10;;;2.90;99.90;;;;;;5015624;28;20465;-69
2023/02/25 04:28:14;;;;;;;2.90;2.20;;;2.90;99.90;;;;;;5015023;28;20461;-69
2023/02/25 04:30:41;;;;;;;2.30;2.10;;;2.90;99.90;;;;;;5015322;28;20467;-69
2023/02/25 04:33:07;;;;;;;3.10;1.70;;;2.90;99.90;;;;;;5015433;28;20569;-69
2023/02/25 04:35:34;;;;;;;1.80;1.60;;;2.90;99.90;;;;;;5015294;28;20467;-69
2023/02/25 04:38:01;;;;;;;4.10;2.47;;;2.80;99.90;;;;;;5015172;28;20456;-69
2023/02/25 04:40:29;;;;;;;2.33;2.13;;;2.80;99.90;;;;;;5015988;28;20786;-69
2023/02/25 04:42:56;;;;;;;2.30;2.00;;;2.80;99.90;;;;;;5015066;28;20511;-69
2023/02/25 04:45:24;;;;;;;1.70;1.50;;;2.80;99.90;;;;;;5014883;28;20480;-69
2023/02/25 04:47:52;;;;;;;1.90;1.70;;;2.80;99.90;;;;;;5015107;28;20555;-69
2023/02/25 04:50:20;;;;;;;2.53;1.97;;;2.80;99.90;;;;;;5014695;28;20461;-69
2023/02/25 04:52:47;;;;;;;2.13;1.90;;;2.80;99.90;;;;;;5015129;28;20463;-69
2023/02/25 04:55:14;;;;;;;2.87;2.30;;;2.70;99.90;;;;;;5016308;28;20471;-69
2023/02/25 04:57:42;;;;;;;1.87;1.50;;;2.80;99.90;;;;;;5021554;28;20457;-69
2023/02/25 05:00:17;;;;;;;2.13;1.57;;;2.70;99.90;;;;;;5021565;28;20553;-69
2023/02/25 05:02:45;;;;;;;1.97;1.60;;;2.60;99.90;;;;;;5021513;28;20924;-68
2023/02/25 05:05:12;;;;;;;2.97;1.57;;;2.70;99.90;;;;;;5021888;28;20461;-69
2023/02/25 05:07:39;;;;;;;1.90;1.70;;;2.70;99.90;;;;;;5021067;28;20460;-69
2023/02/25 05:10:07;;;;;;;1.90;1.53;;;2.70;99.90;;;;;;5021540;28;20467;-69
2023/02/25 05:12:34;;;;;;;1.93;1.60;;;2.70;99.90;;;;;;5021511;28;20456;-68
2023/02/25 05:15:04;;;;;;;3.13;1.93;;;2.60;99.90;;;;;;5021708;28;20460;-69
2023/02/25 05:17:31;;;;;;;2.87;1.87;;;2.60;99.90;;;;;;5021327;28;20461;-68
2023/02/25 05:19:58;;;;;;;1.70;1.60;;;2.60;99.90;;;;;;5021411;28;20547;-69
2023/02/25 05:22:25;;;;;;;2.10;1.73;;;2.70;99.90;;;;;;5021227;28;20476;-69
2023/02/25 05:24:52;;;;;;;2.17;1.97;;;2.80;99.90;;;;;;5021315;28;20503;-68
2023/02/25 05:27:19;;;;;;;3.10;2.00;;;2.70;99.90;;;;;;5021264;28;20461;-68
2023/02/25 05:29:46;;;;;;;2.00;1.80;;;2.70;99.90;;;;;;5021473;28;20480;-68
2023/02/25 05:32:14;;;;;;;2.80;2.30;;;2.70;99.90;;;;;;5021591;28;20535;-68
2023/02/25 05:34:41;;;;;;;2.17;1.90;;;2.70;99.90;;;;;;5021396;28;20471;-68
2023/02/25 05:37:08;;;;;;;2.20;1.50;;;2.70;99.90;;;;;;5021304;28;20484;-69
2023/02/25 05:39:35;;;;;;;3.40;1.90;;;2.70;99.90;;;;;;5020942;28;20540;-69
2023/02/25 05:42:01;;;;;;;2.80;1.60;;;2.70;99.90;;;;;;5021179;28;20815;-68
2023/02/25 05:44:28;;;;;;;2.33;2.13;;;2.60;99.90;;;;;;5020724;28;20576;-69
2023/02/25 05:46:56;;;;;;;2.03;1.83;;;2.60;99.90;;;;;;5020704;28;20445;-69
2023/02/25 05:49:24;;;;;;;2.10;1.90;;;2.60;99.90;;;;;;5021089;28;20547;-69
2023/02/25 05:51:51;;;;;;;2.30;2.10;;;2.60;99.90;;;;;;5020863;28;20467;-69
2023/02/25 05:54:18;;;;;;;3.47;2.07;;;2.50;99.90;;;;;;5020783;28;20591;-69
2023/02/25 05:56:45;;;;;;;3.70;1.80;;;2.50;99.90;;;;;;5021153;28;20470;-69
2023/02/25 05:59:12;;;;;;;2.63;2.00;;;2.60;99.90;;;;;;5021179;28;20800;-68
2023/02/25 06:01:39;;;;;;;2.87;1.77;;;2.60;99.90;;;;;;5020855;28;20477;-69
2023/02/25 06:04:06;;;;;;;2.43;2.07;;;2.60;99.90;;;;;;5020785;28;20925;-69
2023/02/25 06:06:34;;;;;;;2.17;1.90;;;2.50;99.90;;;;;;5020163;28;20456;-68
2023/02/25 06:09:01;;;;;;;4.43;2.30;;;2.50;99.90;;;;;;5017444;28;20464;-69
2023/02/25 06:11:30;;;;;;;2.70;2.30;;;2.40;99.90;;;;;;5017849;28;20448;-69
2023/02/25 06:13:59;;;;;;;2.03;1.83;;;2.40;99.90;;;;;;5017853;28;20457;-69
2023/02/25 06:16:29;;;;;;;3.73;2.40;;;2.50;99.90;;;;;;5017589;28;20460;-68
2023/02/25 06:18:55;;;;;;;2.20;2.00;;;2.40;99.90;;;;;;5017826;28;20500;-69
2023/02/25 06:21:22;;;;;;;2.83;2.30;;;2.40;99.90;;;;;;5017136;28;20467;-68
2023/02/25 06:23:51;;;;;;;6.43;2.00;;;2.40;99.90;;;;;;5017524;28;20527;-69
2023/02/25 06:26:19;;;;;;;2.43;2.23;;;2.40;99.90;;;;;;5017657;28;20457;-69
2023/02/25 06:28:45;;;;;;;2.63;2.43;;;2.40;99.90;;;;;;5017728;28;20526;-68
2023/02/25 06:31:15;;;;;;;2.67;2.40;;;2.30;99.90;;;;;;5017708;28;20797;-68
2023/02/25 06:33:42;;;;;;;2.40;2.20;;;2.30;99.90;;;;;;5017594;28;20867;-69
2023/02/25 06:36:09;;;;;;;3.13;2.80;;;2.20;99.90;;;;;;5017542;28;20457;-68
2023/02/25 06:38:36;;;;;;;2.53;2.00;;;2.20;99.90;;;;;;5017764;28;20496;-68
2023/02/25 06:41:07;;;;;;;3.40;2.10;;;2.30;99.90;;;;;;5017337;28;20457;-68
2023/02/25 06:43:34;;;;;;;2.47;2.27;;;2.30;99.90;;;;;;5017297;28;20472;-69
2023/02/25 06:46:05;;;;;;;2.37;2.17;;;2.30;99.90;;;;;;5016834;28;20494;-68
2023/02/25 06:48:32;;;;;;;3.23;2.00;;;2.30;99.90;;;;;;5017017;28;20911;-67
2023/02/25 06:50:58;;;;;;;3.40;2.23;;;2.20;99.90;;;;;;5017168;28;20453;-69
2023/02/25 06:53:25;;;;;;;3.20;2.60;;;2.30;99.90;;;;;;5017165;28;20776;-69
2023/02/25 06:55:52;;;;;;;3.37;2.23;;;2.30;99.90;;;;;;5016881;28;20547;-69
2023/02/25 06:58:20;;;;;;;2.30;2.03;;;2.30;99.90;;;;;;5016918;28;20563;-69
2023/02/25 07:00:47;;;;;;;2.30;2.10;;;2.30;99.90;;;;;;5017080;28;20513;-69
2023/02/25 07:03:14;;;;;;;2.63;2.40;;;2.30;99.90;;;;;;5016891;28;20499;-68
2023/02/25 07:05:41;;;;;;;2.40;2.20;;;2.20;99.90;;;;;;5016644;28;20457;-67
2023/02/25 07:08:08;;;;;;;2.17;1.77;;;2.20;99.90;;;;;;5016855;28;20540;-69
2023/02/25 07:10:35;;;;;;;3.87;2.43;;;2.20;99.90;;;;;;5016887;28;20465;-68
2023/02/25 07:13:02;;;;;;;2.10;1.90;;;2.20;99.90;;;;;;5016470;28;20500;-67
2023/02/25 07:15:30;;;;;;;2.60;2.03;;;2.20;99.90;;;;;;5016752;28;20465;-68
2023/02/25 07:17:57;;;;;;;2.13;1.93;;;2.20;99.90;;;;;;5016334;28;20457;-69
2023/02/25 07:20:24;;;;;;;2.03;1.83;;;2.20;99.90;;;;;;5016358;28;20467;-69
2023/02/25 07:22:51;;;;;;;2.80;1.83;;;2.10;99.90;;;;;;5016613;28;20568;-69
2023/02/25 07:25:18;;;;;;;1.90;1.70;;;2.10;99.90;;;;;;5016512;28;20763;-69
2023/02/25 07:27:45;;;;;;;3.47;2.30;;;2.10;99.90;;;;;;5016385;28;20519;-68
2023/02/25 07:30:13;;;;;;;2.27;2.07;;;2.20;99.90;;;;;;5016411;28;20457;-69
2023/02/25 07:32:42;;;;;;;2.00;1.70;;;2.20;99.90;;;;;;5016331;28;20453;-69
2023/02/25 07:35:09;;;;;;;2.10;1.90;;;2.20;99.90;;;;;;5016059;28;20453;-69
2023/02/25 07:37:37;;;;;;;2.27;2.07;;;2.20;99.90;;;;;;5016293;28;20467;-69
2023/02/25 07:40:11;;;;;;;2.27;2.07;;;2.30;99.90;;;;;;5015915;28;20949;-68
2023/02/25 07:42:39;;;;;;;2.10;1.90;;;2.30;99.90;;;;;;5016259;28;20468;-69
2023/02/25 07:45:08;;;;;;;2.17;1.90;;;2.30;99.90;;;;;;5016344;28;20493;-67
2023/02/25 07:47:35;;;;;;;1.97;1.77;;;2.30;99.90;;;;;;5016214;28;20457;-69
2023/02/25 07:50:04;;;;;;;2.53;2.17;;;2.30;99.90;;;;;;5016049;28;20456;-69
2023/02/25 07:52:30;;;;;;;1.80;1.40;;;2.30;99.90;;;;;;5016137;28;20772;-69
2023/02/25 07:54:57;;;;;;;2.20;2.00;;;2.30;99.90;;;;;;5016094;28;20882;-69
2023/02/25 07:57:24;;;;;;;3.33;2.20;;;2.40;99.90;;;;;;5015818;28;20456;-69
2023/02/25 07:59:51;;;;;;;2.83;2.53;;;2.40;99.90;;;;;;5015685;28;20467;-69
2023/02/25 08:02:18;;;;;;;2.33;1.90;;;2.40;99.90;;;;;;5015723;28;20517;-69
2023/02/25 08:04:45;;;;;;;2.43;1.80;;;2.50;99.90;;;;;;5015954;28;20865;-69
2023/02/25 08:07:13;;;;;;;1.90;1.60;;;2.50;99.90;;;;;;5015607;28;20918;-68
2023/02/25 08:09:41;;;;;;;2.57;1.50;;;2.40;99.90;;;;;;5015939;28;20460;-68
2023/02/25 08:12:08;;;;;;;1.90;1.60;;;2.40;99.90;;;;;;5015550;28;20453;-68
2023/02/25 08:14:35;;;;;;;2.87;1.60;;;2.40;99.90;;;;;;5015606;28;20464;-69
2023/02/25 08:17:01;;;;;;;3.70;2.87;;;2.40;99.90;;;;;;5015460;28;20460;-69
2023/02/25 08:19:29;;;;;;;2.30;2.07;;;2.40;99.90;;;;;;5015055;28;20461;-68
2023/02/25 08:21:55;;;;;;;3.27;2.27;;;2.40;99.90;;;;;;5015379;28;20746;-68
2023/02/25 08:24:25;;;;;;;1.60;1.40;;;2.30;99.90;;;;;;5015233;28;20467;-69
2023/02/25 08:26:51;;;;;;;4.70;1.70;;;2.20;99.90;;;;;;5015492;28;20461;-69
2023/02/25 08:29:18;;;;;;;1.90;1.60;;;2.30;99.90;;;;;;5015058;28;20552;-69
2023/02/25 08:31:47;;;;;;;5.43;2.47;;;2.30;99.90;;;;;;5014913;28;20552;-69
2023/02/25 08:34:14;;;;;;;1.63;1.40;;;2.30;99.90;;;;;;5014956;28;20614;-68
2023/02/25 08:36:41;;;;;;;1.90;1.30;;;2.30;99.90;;;;;;5015271;28;20467;-68
2023/02/25 08:39:08;;;;;;;1.90;1.50;;;2.30;99.90;;;;;;5015569;28;20898;-69
2023/02/25 08:41:37;;;;;;;2.10;1.43;;;2.30;99.90;;;;;;5015750;28;20461;-70
2023/02/25 08:44:04;;;;;;;2.20;1.30;;;2.30;99.90;;;;;;5015123;28;20519;-67
2023/02/25 08:46:32;;;;;;;1.90;1.50;;;2.40;99.90;;;;;;5014881;28;20550;-69
2023/02/25 08:48:59;;;;;;;3.00;1.53;;;2.40;99.90;;;;;;5023445;28;20452;-69
2023/02/25 08:51:32;;;;;;;3.60;1.13;;;2.50;99.90;;;;;;5034687;28;20466;-69
2023/02/25 08:54:01;;;;;;;1.90;1.63;;;2.40;99.90;;;;;;5035517;28;20888;-69
2023/02/25 08:56:28;;;;;;;1.97;1.73;;;2.40;99.90;;;;;;5034961;28;20471;-69
2023/02/25 08:58:56;;;;;;;2.10;1.33;;;2.40;99.90;;;;;;5025014;28;20464;-69
2023/02/25 09:01:23;;;;;;;2.17;1.60;;;2.50;99.90;;;;;;5015067;28;20456;-69
2023/02/25 09:03:53;;;;;;;1.90;1.30;;;2.50;99.90;;;;;;5014981;28;20488;-69
2023/02/25 09:06:21;;;;;;;4.00;2.63;;;2.50;99.90;;;;;;5014629;28;20461;-69
2023/02/25 09:08:48;;;;;;;1.57;1.20;;;2.50;99.90;;;;;;5014865;28;20544;-69
2023/02/25 09:11:15;;;;;;;1.90;1.40;;;2.50;99.90;;;;;;5014743;28;20467;-68
2023/02/25 09:13:42;;;;;;;1.40;1.13;;;2.60;99.90;;;;;;5014650;28;20459;-69
2023/02/25 09:16:16;;;;;;;1.40;1.30;;;2.50;99.90;;;;;;5014933;28;20457;-69
2023/02/25 09:18:43;;;;;;;1.60;1.40;;;2.50;99.90;;;;;;5014971;28;20445;-69
2023/02/25 09:21:11;;;;;;;1.73;1.40;;;2.40;99.90;;;;;;5014841;28;20467;-68
2023/02/25 09:23:38;;;;;;;1.50;1.10;;;2.50;99.90;;;;;;5014407;28;20480;-69
2023/02/25 09:26:06;;;;;;;1.43;1.00;;;2.50;99.90;;;;;;5014358;28;20460;-69
2023/02/25 09:28:34;;;;;;;2.23;1.20;;;2.50;99.90;;;;;;5014634;28;20519;-69
2023/02/25 09:31:01;;;;;;;1.90;1.10;;;2.50;99.90;;;;;;5014882;28;20467;-69
2023/02/25 09:33:30;;;;;;;1.90;1.20;;;2.50;99.90;;;;;;5014968;28;20457;-69
2023/02/25 09:36:06;;;;;;;1.57;1.00;;;2.60;99.90;;;;;;5014894;28;20789;-69
2023/02/25 09:38:33;;;;;;;1.40;1.00;;;2.60;99.90;;;;;;5015771;28;20444;-69
2023/02/25 09:41:00;;;;;;;1.20;1.00;;;2.70;99.90;;;;;;5014815;28;20467;-69
2023/02/25 09:43:30;;;;;;;1.30;0.93;;;2.60;99.90;;;;;;5016712;28;20579;-67
2023/02/25 09:46:06;;;;;;;1.67;1.30;;;2.70;99.90;;;;;;5018496;28;20567;-68
2023/02/25 09:48:40;;;;;;;1.37;1.10;;;2.70;99.90;;;;;;5018620;28;20488;-68
2023/02/25 09:51:18;;;;;;;1.80;1.10;;;2.80;99.90;;;;;;5018254;28;20447;-69
2023/02/25 09:53:51;;;;;;;1.80;1.27;;;2.80;99.90;;;;;;5018199;28;20437;-68
2023/02/25 09:56:18;;;;;;;1.70;1.10;;;2.80;99.90;;;;;;5018433;28;20445;-70
2023/02/25 09:58:51;;;;;;;1.77;1.10;;;2.90;99.90;;;;;;5018536;28;20461;-68
2023/02/25 10:01:33;;;;;;;1.50;1.10;;;2.90;99.90;;;;;;5018452;28;20945;-67
2023/02/25 10:04:07;;;;;;;1.30;1.10;;;3.00;99.90;;;;;;5018343;28;20475;-68
2023/02/25 10:06:38;;;;;;;3.40;1.67;;;3.10;99.90;;;;;;5018640;28;20476;-67
2023/02/25 10:09:14;;;;;;;1.80;1.30;;;3.10;99.90;;;;;;5018671;28;20453;-67
2023/02/25 10:11:48;;;;;;;1.90;1.00;;;3.20;99.90;;;;;;5019066;28;20484;-68
2023/02/25 10:14:26;;;;;;;1.40;1.00;;;3.20;99.90;;;;;;5019126;28;20782;-69
2023/02/25 10:17:02;;;;;;;1.60;1.10;;;3.20;99.90;;;;;;5019170;28;20540;-70
2023/02/25 10:19:42;;;;;;;2.37;1.13;;;3.10;99.90;;;;;;5017344;28;20456;-69
2023/02/25 10:22:41;;;;;;;7.23;4.90;;;3.20;99.90;;;;;;5018286;28;20507;-69
2023/02/25 10:25:12;;;;;;;1.30;0.90;;;3.20;99.90;;;;;;5017770;28;20453;-69
2023/02/25 10:27:44;;;;;;;1.30;1.00;;;3.20;99.90;;;;;;5017367;28;20455;-68
2023/02/25 10:30:15;;;;;;;1.30;0.90;;;3.20;99.90;;;;;;5017423;28;20441;-69
2023/02/25 10:32:44;;;;;;;1.43;1.03;;;3.20;99.90;;;;;;5017431;28;20777;-69
2023/02/25 10:35:17;;;;;;;1.40;1.03;;;3.20;99.90;;;;;;5017186;28;20921;-69
2023/02/25 10:37:43;;;;;;;1.37;0.90;;;3.00;99.90;;;;;;5017465;28;20441;-69
2023/02/25 10:40:15;;;;;;;1.90;1.07;;;3.10;99.90;;;;;;5017374;28;20453;-68
2023/02/25 10:42:45;;;;;;;1.40;1.00;;;3.10;99.90;;;;;;5017237;28;20441;-69
2023/02/25 10:45:17;;;;;;;1.40;1.20;;;3.00;99.90;;;;;;5016895;28;20485;-68
2023/02/25 10:47:47;;;;;;;1.77;1.30;;;3.00;99.90;;;;;;5017055;28;20455;-69
2023/02/25 10:50:19;;;;;;;1.20;1.00;;;3.10;99.90;;;;;;5017170;28;20467;-69
2023/02/25 10:52:56;;;;;;;1.80;1.40;;;3.10;99.90;;;;;;5016493;28;20895;-69
2023/02/25 10:55:31;;;;;;;1.63;1.13;;;3.10;99.90;;;;;;5017037;28;20551;-69
2023/02/25 10:57:59;;;;;;;1.50;1.17;;;3.20;99.90;;;;;;5016763;28;20514;-69
2023/02/25 11:00:29;;;;;;;1.90;1.10;;;3.20;99.90;;;;;;5016704;28;20485;-68
2023/02/25 11:02:58;;;;;;;4.20;1.20;;;3.30;99.90;;;;;;5017128;28;20826;-70
2023/02/25 11:05:39;;;;;;;1.60;1.50;;;3.60;99.90;;;;;;5016892;28;20460;-69
2023/02/25 11:08:25;;;;;;;4.13;1.70;;;3.70;99.90;;;;;;5016350;28;20457;-69
2023/02/25 11:11:01;;;;;;;1.40;0.93;;;3.70;99.90;;;;;;5016344;28;20890;-68
2023/02/25 11:13:31;;;;;;;1.37;0.97;;;3.80;99.90;;;;;;5016771;28;20815;-69
2023/02/25 11:16:03;;;;;;;1.40;0.90;;;3.90;99.90;;;;;;5016547;28;20456;-69
2023/02/25 11:18:31;;;;;;;1.27;0.90;;;3.90;99.90;;;;;;5017430;28;20766;-69
2023/02/25 11:21:02;;;;;;;1.30;0.90;;;3.90;99.90;;;;;;5016496;28;20457;-69
2023/02/25 11:23:34;;;;;;;4.20;2.40;;;3.90;99.90;;;;;;5016153;28;20469;-68
2023/02/25 11:26:01;;;;;;;1.30;1.00;;;3.70;99.90;;;;;;5016127;28;20438;-68
2023/02/25 11:28:33;;;;;;;1.53;1.00;;;3.40;99.90;;;;;;5016056;28;20519;-68
2023/02/25 11:31:10;;;;;;;1.20;0.97;;;3.30;99.90;;;;;;5016252;28;20528;-69
2023/02/25 11:33:39;;;;;;;1.47;1.00;;;3.20;99.90;;;;;;5016033;28;20539;-69
2023/02/25 11:36:08;;;;;;;2.53;2.10;;;3.00;99.90;;;;;;5016795;28;20571;-70
2023/02/25 11:38:37;;;;;;;1.50;1.20;;;3.00;99.90;;;;;;5016012;28;20515;-68
2023/02/25 11:41:04;;;;;;;1.40;1.00;;;2.90;99.90;;;;;;5016065;28;20462;-69
2023/02/25 11:43:38;;;;;;;1.30;1.07;;;3.00;99.90;;;;;;5015660;28;20491;-69
2023/02/25 11:46:08;;;;;;;1.87;1.10;;;3.20;99.90;;;;;;5016220;28;20606;-70
2023/02/25 11:48:45;;;;;;;1.40;1.17;;;3.30;99.90;;;;;;5016443;28;20532;-68
2023/02/25 11:51:22;;;;;;;1.47;1.20;;;3.30;99.90;;;;;;5016073;28;20779;-69
2023/02/25 11:54:24;;;;;;;2.27;1.00;;;3.50;99.90;;;;;;5015801;28;20452;-69
2023/02/25 11:56:55;;;;;;;1.33;1.17;;;3.60;99.90;;;;;;4973837;28;20539;-69
2023/02/25 11:59:33;;;;;;;1.80;1.10;;;3.70;99.90;;;;;;5015561;28;20543;-69
2023/02/25 12:02:20;;;;;;;1.50;1.10;;;3.70;99.90;;;;;;5015605;28;20441;-70
2023/02/25 12:05:19;;;;;;;2.30;0.97;;;3.80;99.90;;;;;;5014997;28;20469;-69
2023/02/25 12:08:10;;;;;;;1.57;1.23;;;3.60;99.90;;;;;;5015289;28;20441;-69
2023/02/25 12:11:07;;;;;;;1.40;1.00;;;3.30;99.90;;;;;;5015785;28;20445;-69
2023/02/25 12:14:18;;;;;;;1.30;1.10;;;3.20;99.90;;;;;;5015532;28;20455;-70
2023/02/25 12:17:36;;;;;;;1.40;1.20;;;3.20;99.90;;;;;;5014986;28;20947;-70
2023/02/25 12:20:33;;;;;;;1.67;1.20;;;3.00;99.90;;;;;;5015334;28;20455;-70
2023/02/25 12:23:40;;;;;;;2.87;1.10;;;3.00;99.90;;;;;;5015031;28;20793;-69
2023/02/25 12:26:14;;;;;;;1.20;0.90;;;3.10;99.90;;;;;;5014982;28;20465;-68
2023/02/25 12:28:52;;;;;;;1.30;1.03;;;3.20;99.90;;;;;;5015307;28;20542;-69
2023/02/25 12:31:44;;;;;;;1.40;1.13;;;3.40;99.90;;;;;;5015551;28;20757;-69
2023/02/25 12:34:29;;;;;;;4.00;1.60;;;3.40;99.90;;;;;;5015204;28;20516;-68
2023/02/25 12:37:17;;;;;;;1.83;1.30;;;3.30;99.90;;;;;;5014857;28;20532;-70
2023/02/25 12:39:58;;;;;;;1.30;1.07;;;3.20;99.90;;;;;;5014973;28;20456;-69
2023/02/25 12:42:55;;;;;;;1.30;1.10;;;3.20;99.90;;;;;;5015068;28;20441;-69
2023/02/25 12:45:39;;;;;;;1.43;1.10;;;3.10;99.90;;;;;;5015296;28;20503;-69
2023/02/25 12:48:35;;;;;;;1.40;1.30;;;3.00;99.90;;;;;;5014608;28;20445;-68
2023/02/25 12:51:36;;;;;;;1.60;1.20;;;3.00;99.90;;;;;;5015019;28;20795;-69
2023/02/25 12:54:20;;;;;;;5.90;3.47;;;3.00;99.90;;;;;;5015049;28;20455;-69
2023/02/25 12:57:17;;;;;;;1.63;1.30;;;3.20;99.90;;;;;;5015372;28;20441;-68
2023/02/25 13:00:09;;;;;;;2.03;1.20;;;3.20;99.90;;;;;;5014962;28;20529;-70
2023/02/25 13:03:14;;;;;;;1.67;1.40;;;3.30;78.40;;;;;;5014906;28;20479;-70
2023/02/25 13:06:06;;;;;;;2.33;1.00;;;3.30;11.90;;;;;;5015357;28;20912;-67
2023/02/25 13:08:49;;;;;;;1.90;1.00;;;3.20;99.90;;;;;;5014743;28;20495;-68
2023/02/25 13:11:25;;;;;;;1.60;1.00;;;2.80;99.90;;;;;;5014898;28;20441;-66
2023/02/25 13:14:25;;;;;;;1.67;1.50;;;2.60;99.90;;;;;;5014887;28;20439;-67
2023/02/25 13:17:16;;;;;;;2.43;1.30;;;2.40;99.90;;;;;;5016135;28;20964;-66
2023/02/25 13:20:06;;;;;;;1.40;1.20;;;2.20;99.90;;;;;;5018939;28;20437;-66